createdAt,value
2023-03-27T00:02:14.004Z,6.87
2023-03-27T00:04:42.518Z,6.78
2023-03-27T00:07:11.002Z,7.02
2023-03-27T00:09:44.309Z,6.54
2023-03-27T00:12:12.242Z,6.39
2023-03-27T00:14:39.881Z,6.47
2023-03-27T00:17:07.743Z,6.38
2023-03-27T00:19:36.498Z,6.56
2023-03-27T00:22:04.231Z,6.66
2023-03-27T00:24:32.342Z,6.62
2023-03-27T00:27:00.102Z,6.61
2023-03-27T00:29:28.384Z,6.82
2023-03-27T00:31:56.488Z,6.86
2023-03-27T00:34:29.454Z,7.00
2023-03-27T00:37:09.929Z,7.03
2023-03-27T00:39:50.456Z,6.92
2023-03-27T00:42:29.687Z,6.80
2023-03-27T00:45:17.569Z,6.45
2023-03-27T00:47:56.779Z,6.40
2023-03-27T00:50:34.717Z,6.26
2023-03-27T00:53:22.288Z,6.18
2023-03-27T00:56:12.557Z,6.02
2023-03-27T00:58:54.884Z,5.93
2023-03-27T01:01:30.272Z,5.87
2023-03-27T01:04:31.243Z,6.00
2023-03-27T01:07:07.574Z,5.85
2023-03-27T01:09:57.299Z,5.93
2023-03-27T01:12:42.959Z,5.75
2023-03-27T01:15:38.405Z,5.72
2023-03-27T01:18:51.245Z,5.85
2023-03-27T01:22:04.475Z,5.94
2023-03-27T01:25:02.360Z,6.01
2023-03-27T01:28:17.589Z,5.69
2023-03-27T01:31:51.745Z,5.37
2023-03-27T01:35:02.201Z,5.18
2023-03-27T01:38:11.275Z,5.37
2023-03-27T01:40:51.581Z,5.06
2023-03-27T01:43:39.594Z,5.09
2023-03-27T01:46:19.511Z,5.14
2023-03-27T01:49:07.268Z,5.11
2023-03-27T01:51:46.774Z,5.04
2023-03-27T01:54:54.897Z,4.97
2023-03-27T01:57:37.380Z,5.11
2023-03-27T02:00:24.564Z,5.12
2023-03-27T02:03:19.458Z,5.23
2023-03-27T02:06:08.030Z,5.13
2023-03-27T02:08:57.499Z,5.22
2023-03-27T02:11:37.883Z,5.16
2023-03-27T02:14:30.432Z,5.12
2023-03-27T02:17:14.190Z,5.24
2023-03-27T02:20:07.081Z,5.36
2023-03-27T02:22:45.551Z,5.20
2023-03-27T02:25:33.544Z,5.21
2023-03-27T02:28:33.838Z,5.16
2023-03-27T02:31:35.080Z,5.13
2023-03-27T02:34:11.911Z,5.07
2023-03-27T02:37:00.626Z,5.07
2023-03-27T02:40:12.301Z,5.02
2023-03-27T02:43:10.993Z,5.24
2023-03-27T02:46:18.616Z,5.14
2023-03-27T02:48:59.044Z,5.02
2023-03-27T02:52:15.860Z,4.79
2023-03-27T02:55:25.223Z,4.84
2023-03-27T02:58:04.359Z,4.78
2023-03-27T03:01:19.696Z,4.73
2023-03-27T03:04:33.050Z,4.71
2023-03-27T03:07:11.561Z,4.68
2023-03-27T03:09:52.338Z,4.46
2023-03-27T03:12:34.993Z,4.52
2023-03-27T03:15:14.580Z,4.61
2023-03-27T03:17:46.290Z,4.57
2023-03-27T03:20:29.096Z,4.51
2023-03-27T03:26:05.670Z,4.64
2023-03-27T03:29:00.242Z,4.69
2023-03-27T03:31:56.103Z,4.63
2023-03-27T03:34:29.953Z,4.61
2023-03-27T03:37:13.636Z,4.70
2023-03-27T03:40:14.113Z,4.64
2023-03-27T03:42:59.701Z,4.59
2023-03-27T03:45:46.795Z,4.76
2023-03-27T03:48:48.589Z,4.79
2023-03-27T03:51:26.878Z,4.78
2023-03-27T03:56:59.148Z,4.97
2023-03-27T04:03:03.882Z,4.69
2023-03-27T04:05:55.602Z,4.84
2023-03-27T04:08:40.036Z,4.61
2023-03-27T04:12:11.029Z,4.67
2023-03-27T04:15:02.540Z,4.66
2023-03-27T04:21:34.573Z,4.70
2023-03-27T04:24:20.146Z,4.56
2023-03-27T04:27:00.042Z,4.54
2023-03-27T04:30:14.770Z,4.69
2023-03-27T04:33:08.562Z,4.51
2023-03-27T04:36:55.326Z,4.49
2023-03-27T04:39:58.630Z,4.77
2023-03-27T04:49:11.414Z,4.84
2023-03-27T04:52:17.611Z,4.95
2023-03-27T04:55:17.394Z,5.05
2023-03-27T05:01:02.517Z,5.00
2023-03-27T05:08:03.557Z,4.96
2023-03-27T05:11:02.282Z,4.92
2023-03-27T05:13:48.527Z,4.90
2023-03-27T05:16:34.859Z,4.86
2023-03-27T05:19:15.072Z,5.03
2023-03-27T05:21:58.372Z,4.89
2023-03-27T05:24:34.922Z,4.75
2023-03-27T05:27:17.621Z,4.92
2023-03-27T05:30:00.660Z,5.00
2023-03-27T05:32:39.291Z,5.02
2023-03-27T05:35:34.476Z,4.75
2023-03-27T05:38:34.437Z,4.79
2023-03-27T05:41:54.830Z,4.92
2023-03-27T05:44:26.896Z,4.84
2023-03-27T05:46:57.380Z,4.90
2023-03-27T05:49:29.376Z,4.93
2023-03-27T05:52:07.089Z,4.87
2023-03-27T05:54:34.638Z,4.83
2023-03-27T05:57:09.254Z,4.88
2023-03-27T05:59:38.624Z,4.88
2023-03-27T06:02:27.853Z,4.97
2023-03-27T06:04:59.310Z,4.88
2023-03-27T06:07:33.025Z,4.87
2023-03-27T06:10:13.139Z,4.90
2023-03-27T06:12:46.417Z,4.69
2023-03-27T06:15:29.535Z,4.77
2023-03-27T06:18:16.613Z,4.82
2023-03-27T06:20:44.458Z,4.92
2023-03-27T06:23:13.324Z,4.81
2023-03-27T06:25:41.536Z,4.65
2023-03-27T06:28:11.450Z,4.72
2023-03-27T06:30:46.211Z,4.74
2023-03-27T06:33:43.808Z,4.75
2023-03-27T06:36:25.308Z,4.55
2023-03-27T06:38:54.465Z,4.44
2023-03-27T06:41:22.413Z,4.53
2023-03-27T06:44:28.144Z,4.77
2023-03-27T06:47:12.922Z,5.04
2023-03-27T06:50:07.627Z,5.46
2023-03-27T06:52:35.723Z,5.74
2023-03-27T06:55:18.715Z,5.99
2023-03-27T06:57:55.491Z,6.32
2023-03-27T07:00:26.701Z,6.62
2023-03-27T07:03:13.441Z,7.10
2023-03-27T07:06:01.084Z,7.28
2023-03-27T07:08:34.835Z,7.44
2023-03-27T07:13:37.378Z,7.81
2023-03-27T07:16:07.740Z,8.08
2023-03-27T07:18:36.268Z,8.10
2023-03-27T07:21:04.536Z,8.58
2023-03-27T07:23:35.714Z,8.59
2023-03-27T07:26:09.782Z,8.19
2023-03-27T07:29:01.011Z,8.42
2023-03-27T07:31:42.443Z,8.76
2023-03-27T07:34:17.940Z,8.77
2023-03-27T07:37:16.033Z,8.43
2023-03-27T07:40:13.900Z,8.49
2023-03-27T07:42:46.138Z,8.74
2023-03-27T07:45:21.979Z,8.70
2023-03-27T07:47:52.304Z,8.69
2023-03-27T07:50:21.895Z,8.62
2023-03-27T07:52:51.201Z,8.83
2023-03-27T07:55:20.023Z,9.11
2023-03-27T07:58:02.271Z,9.66
2023-03-27T08:00:35.527Z,9.25
2023-03-27T08:03:15.200Z,9.16
2023-03-27T08:05:52.261Z,9.21
2023-03-27T08:08:20.478Z,9.16
2023-03-27T08:10:57.692Z,9.12
2023-03-27T08:13:28.996Z,9.32
2023-03-27T08:16:13.613Z,9.30
2023-03-27T08:18:42.727Z,9.73
2023-03-27T08:21:11.803Z,9.78
2023-03-27T08:23:41.061Z,10.16
2023-03-27T08:26:09.463Z,10.00
2023-03-27T08:28:46.378Z,9.93
2023-03-27T08:31:16.176Z,10.67
2023-03-27T08:33:50.233Z,10.94
2023-03-27T08:36:37.119Z,11.25
2023-03-27T08:39:07.832Z,11.35
2023-03-27T08:41:52.565Z,11.45
2023-03-27T08:44:28.528Z,11.78
2023-03-27T08:47:17.165Z,11.45
2023-03-27T08:49:59.209Z,12.27
2023-03-27T08:52:42.075Z,12.69
2023-03-27T08:55:33.871Z,12.63
2023-03-27T08:58:19.028Z,12.66
2023-03-27T09:01:08.866Z,12.44
2023-03-27T09:03:56.306Z,12.57
2023-03-27T09:06:48.257Z,12.68
2023-03-27T09:09:32.259Z,13.19
2023-03-27T09:12:21.487Z,13.61
2023-03-27T09:14:56.934Z,13.79
2023-03-27T09:17:37.615Z,13.78
2023-03-27T09:20:34.508Z,13.66
2023-03-27T09:23:13.875Z,13.74
2023-03-27T09:26:33.799Z,14.17
2023-03-27T09:29:19.933Z,14.09
2023-03-27T09:31:54.625Z,14.81
2023-03-27T09:34:32.514Z,14.38
2023-03-27T09:37:01.594Z,14.78
2023-03-27T09:39:35.129Z,15.16
2023-03-27T09:42:26.571Z,15.05
2023-03-27T09:45:00.147Z,15.06
2023-03-27T09:47:40.862Z,15.02
2023-03-27T09:50:30.886Z,15.11
2023-03-27T09:53:19.128Z,14.94
2023-03-27T09:55:56.619Z,14.95
2023-03-27T09:58:32.603Z,15.20
2023-03-27T10:01:16.635Z,15.07
2023-03-27T10:03:53.170Z,15.05
2023-03-27T10:06:38.838Z,14.85
2023-03-27T10:09:30.406Z,15.19
2023-03-27T10:12:19.741Z,15.31
2023-03-27T10:14:52.853Z,15.21
2023-03-27T10:17:34.155Z,15.43
2023-03-27T10:20:15.939Z,15.31
2023-03-27T10:23:06.999Z,15.09
2023-03-27T10:25:38.138Z,15.19
2023-03-27T10:28:28.874Z,15.41
2023-03-27T10:31:29.878Z,15.55
2023-03-27T10:34:05.497Z,15.71
2023-03-27T10:36:54.527Z,15.92
2023-03-27T10:39:29.468Z,16.03
2023-03-27T10:42:10.237Z,15.90
2023-03-27T10:44:45.912Z,16.17
2023-03-27T10:47:23.763Z,16.35
2023-03-27T10:49:56.606Z,16.29
2023-03-27T10:53:02.674Z,16.60
2023-03-27T10:55:48.713Z,16.76
2023-03-27T10:58:31.222Z,17.08
2023-03-27T11:01:25.114Z,17.44
2023-03-27T11:03:58.352Z,17.36
2023-03-27T11:06:34.193Z,17.73
2023-03-27T11:09:17.517Z,17.79
2023-03-27T11:12:10.466Z,17.83
2023-03-27T11:15:21.071Z,18.17
2023-03-27T11:17:59.863Z,18.24
2023-03-27T11:20:50.759Z,17.80
2023-03-27T11:23:48.217Z,18.48
2023-03-27T11:26:18.271Z,18.95
2023-03-27T11:29:03.157Z,19.04
2023-03-27T11:31:50.537Z,19.10
2023-03-27T11:34:46.481Z,19.29
2023-03-27T11:38:00.445Z,18.90
2023-03-27T11:40:38.165Z,18.44
2023-03-27T11:43:08.821Z,17.77
2023-03-27T11:45:46.599Z,17.22
2023-03-27T11:48:36.055Z,17.39
2023-03-27T11:51:14.430Z,17.87
2023-03-27T11:53:56.431Z,18.47
2023-03-27T11:56:55.822Z,18.86
2023-03-27T12:00:07.592Z,19.19
2023-03-27T12:03:01.772Z,19.39
2023-03-27T12:06:02.143Z,19.11
2023-03-27T12:08:53.361Z,19.12
2023-03-27T12:11:25.395Z,19.24
2023-03-27T12:14:23.947Z,19.69
2023-03-27T12:17:02.346Z,19.78
2023-03-27T12:19:48.268Z,19.94
2023-03-27T12:22:57.353Z,19.45
2023-03-27T12:26:15.113Z,19.21
2023-03-27T12:29:23.691Z,19.07
2023-03-27T12:32:10.692Z,18.79
2023-03-27T12:34:44.065Z,18.54
2023-03-27T12:37:14.171Z,18.54
2023-03-27T12:39:51.896Z,18.39
2023-03-27T12:42:49.147Z,18.30
2023-03-27T12:45:23.995Z,18.22
2023-03-27T12:48:09.717Z,18.01
2023-03-27T12:50:54.980Z,17.95
2023-03-27T12:53:26.118Z,18.12
2023-03-27T12:56:17.798Z,18.19
2023-03-27T12:58:52.344Z,18.47
2023-03-27T13:01:45.612Z,18.58
2023-03-27T13:04:32.048Z,18.82
2023-03-27T13:07:13.484Z,19.25
2023-03-27T13:10:13.257Z,19.24
2023-03-27T13:13:18.310Z,18.89
2023-03-27T13:16:01.233Z,18.52
2023-03-27T13:18:51.734Z,18.16
2023-03-27T13:21:20.166Z,17.86
2023-03-27T13:24:15.988Z,17.40
2023-03-27T13:26:50.189Z,17.53
2023-03-27T13:29:23.144Z,17.41
2023-03-27T13:32:00.259Z,17.30
2023-03-27T13:34:42.622Z,17.03
2023-03-27T13:37:16.980Z,16.85
2023-03-27T13:39:56.414Z,16.75
2023-03-27T13:42:33.090Z,16.98
2023-03-27T13:45:19.540Z,16.83
2023-03-27T13:48:35.191Z,16.77
2023-03-27T13:51:26.665Z,16.62
2023-03-27T13:54:07.058Z,16.44
2023-03-27T13:57:02.153Z,16.50
2023-03-27T14:00:00.438Z,16.51
2023-03-27T14:03:10.841Z,16.34
2023-03-27T14:06:05.775Z,16.33
2023-03-27T14:09:19.004Z,16.33
2023-03-27T14:12:34.856Z,16.19
2023-03-27T14:15:26.865Z,16.22
2023-03-27T14:18:33.033Z,16.19
2023-03-27T14:21:03.544Z,15.88
2023-03-27T14:23:55.901Z,15.60
2023-03-27T14:26:37.923Z,15.29
2023-03-27T14:29:05.833Z,15.29
2023-03-27T14:31:38.878Z,15.26
2023-03-27T14:34:24.919Z,15.08
2023-03-27T14:37:30.393Z,14.90
2023-03-27T14:40:42.284Z,15.15
2023-03-27T14:43:12.629Z,15.47
2023-03-27T14:45:41.205Z,15.25
2023-03-27T14:48:25.994Z,15.05
2023-03-27T14:50:58.006Z,14.75
2023-03-27T14:53:31.406Z,14.39
2023-03-27T14:56:31.798Z,14.25
2023-03-27T14:59:34.631Z,14.11
2023-03-27T15:02:26.469Z,14.08
2023-03-27T15:05:09.652Z,14.37
2023-03-27T15:07:38.436Z,14.42
2023-03-27T15:10:21.957Z,14.39
2023-03-27T15:12:59.086Z,14.33
2023-03-27T15:15:43.012Z,14.65
2023-03-27T15:18:17.694Z,14.88
2023-03-27T15:20:47.405Z,15.02
2023-03-27T15:23:31.318Z,15.22
2023-03-27T15:26:06.265Z,15.30
2023-03-27T15:28:53.412Z,15.28
2023-03-27T15:31:21.499Z,15.44
2023-03-27T15:34:06.777Z,15.73
2023-03-27T15:36:37.490Z,16.03
2023-03-27T15:39:07.361Z,16.32
2023-03-27T15:41:35.230Z,16.68
2023-03-27T15:44:09.301Z,16.82
2023-03-27T15:46:58.056Z,16.94
2023-03-27T15:49:35.734Z,16.86
2023-03-27T15:52:32.557Z,17.17
2023-03-27T15:55:01.109Z,16.99
2023-03-27T15:57:31.399Z,16.95
2023-03-27T16:00:08.511Z,16.88
2023-03-27T16:02:40.765Z,16.79
2023-03-27T16:05:08.789Z,16.63
2023-03-27T16:07:39.296Z,16.69
2023-03-27T16:10:07.507Z,16.63
2023-03-27T16:12:56.521Z,16.59
2023-03-27T16:15:30.938Z,16.55
2023-03-27T16:18:04.304Z,16.57
2023-03-27T16:20:38.828Z,16.23
2023-03-27T16:23:06.388Z,16.26
2023-03-27T16:25:34.032Z,16.20
2023-03-27T16:28:01.913Z,16.23
2023-03-27T16:30:29.627Z,16.08
2023-03-27T16:32:57.279Z,15.85
2023-03-27T16:35:25.489Z,15.78
2023-03-27T16:37:54.100Z,15.83
2023-03-27T16:40:21.642Z,15.69
2023-03-27T16:42:49.057Z,15.59
2023-03-27T16:45:16.794Z,15.47
2023-03-27T16:47:46.377Z,15.39
2023-03-27T16:50:21.886Z,15.30
2023-03-27T16:52:49.362Z,15.20
2023-03-27T16:55:17.518Z,15.04
2023-03-27T16:57:46.663Z,14.97
2023-03-27T17:00:16.720Z,14.91
2023-03-27T17:02:44.588Z,14.95
2023-03-27T17:05:13.159Z,14.71
2023-03-27T17:07:44.935Z,14.60
2023-03-27T17:10:12.678Z,14.59
2023-03-27T17:12:40.118Z,14.49
2023-03-27T17:15:08.450Z,14.44
2023-03-27T17:17:36.007Z,14.12
2023-03-27T17:20:06.334Z,14.23
2023-03-27T17:22:35.036Z,13.93
2023-03-27T17:25:05.636Z,13.71
2023-03-27T17:27:33.992Z,13.74
2023-03-27T17:30:01.640Z,13.38
2023-03-27T17:32:29.510Z,13.08
2023-03-27T17:34:56.989Z,12.79
2023-03-27T17:37:25.992Z,13.07
2023-03-27T17:39:53.595Z,13.11
2023-03-27T17:42:21.244Z,13.17
2023-03-27T17:44:49.125Z,13.40
2023-03-27T17:47:16.681Z,13.45
2023-03-27T17:49:45.241Z,12.60
2023-03-27T17:52:13.523Z,12.38
2023-03-27T17:54:41.533Z,12.28
2023-03-27T17:57:09.031Z,11.77
2023-03-27T17:59:38.520Z,12.07
2023-03-27T18:02:07.373Z,11.73
2023-03-27T18:04:35.305Z,11.59
2023-03-27T18:07:02.884Z,11.44
2023-03-27T18:09:34.864Z,11.12
2023-03-27T18:12:02.535Z,11.20
2023-03-27T18:14:30.029Z,11.73
2023-03-27T18:16:57.621Z,11.65
2023-03-27T18:19:26.004Z,11.86
2023-03-27T18:21:53.519Z,11.79
2023-03-27T18:24:21.027Z,12.07
2023-03-27T18:26:48.653Z,12.35
2023-03-27T18:29:16.166Z,12.49
2023-03-27T18:31:43.873Z,12.58
2023-03-27T18:34:11.780Z,12.53
2023-03-27T18:36:39.284Z,12.75
2023-03-27T18:39:06.922Z,12.76
2023-03-27T18:41:35.810Z,12.47
2023-03-27T18:44:03.312Z,12.01
2023-03-27T18:46:31.342Z,12.39
2023-03-27T18:49:00.621Z,12.29
2023-03-27T18:51:31.709Z,12.32
2023-03-27T18:53:59.408Z,11.72
2023-03-27T18:56:26.968Z,11.31
2023-03-27T18:58:54.465Z,11.16
2023-03-27T19:01:22.444Z,10.80
2023-03-27T19:03:51.807Z,10.77
2023-03-27T19:06:20.343Z,10.85
2023-03-27T19:08:48.522Z,11.54
2023-03-27T19:11:16.671Z,11.68
2023-03-27T19:14:13.557Z,11.62
2023-03-27T19:16:53.543Z,10.94
2023-03-27T19:19:32.186Z,11.28
2023-03-27T19:22:22.800Z,11.37
2023-03-27T19:24:56.939Z,11.34
2023-03-27T19:27:25.800Z,11.23
2023-03-27T19:29:54.432Z,11.17
2023-03-27T19:32:24.382Z,11.16
2023-03-27T19:34:52.346Z,10.99
2023-03-27T19:37:19.993Z,10.80
2023-03-27T19:39:47.780Z,10.43
2023-03-27T19:42:15.866Z,10.08
2023-03-27T19:44:44.313Z,10.37
2023-03-27T19:47:12.294Z,10.45
2023-03-27T19:49:41.195Z,10.04
2023-03-27T19:52:19.935Z,9.83
2023-03-27T19:54:47.592Z,9.09
2023-03-27T19:57:15.503Z,9.24
2023-03-27T19:59:43.141Z,9.61
2023-03-27T20:02:14.667Z,9.96
2023-03-27T20:04:42.413Z,10.19
2023-03-27T20:07:10.164Z,10.32
2023-03-27T20:09:39.791Z,10.51
2023-03-27T20:12:07.481Z,10.56
2023-03-27T20:14:34.920Z,10.53
2023-03-27T20:17:02.599Z,10.63
2023-03-27T20:19:31.188Z,10.71
2023-03-27T20:22:02.157Z,10.71
2023-03-27T20:24:29.937Z,10.78
2023-03-27T20:27:00.300Z,10.59
2023-03-27T20:29:27.914Z,10.52
2023-03-27T20:31:55.976Z,10.56
2023-03-27T20:34:24.282Z,10.53
2023-03-27T20:36:53.268Z,10.54
2023-03-27T20:39:47.699Z,10.60
2023-03-27T20:42:17.332Z,10.62
2023-03-27T20:44:46.492Z,10.48
2023-03-27T20:47:15.268Z,10.43
2023-03-27T20:49:47.604Z,10.49
2023-03-27T20:52:18.385Z,10.29
2023-03-27T20:54:45.900Z,10.30
2023-03-27T20:57:15.642Z,10.34
2023-03-27T20:59:43.238Z,10.31
2023-03-27T21:02:15.834Z,10.31
2023-03-27T21:04:43.290Z,10.20
2023-03-27T21:07:14.043Z,9.99
2023-03-27T21:09:42.935Z,9.70
2023-03-27T21:12:10.369Z,9.65
2023-03-27T21:14:38.412Z,9.72
2023-03-27T21:17:06.148Z,9.90
2023-03-27T21:19:33.628Z,9.70
2023-03-27T21:22:02.021Z,9.50
2023-03-27T21:24:29.580Z,9.52
2023-03-27T21:26:58.509Z,9.71
2023-03-27T21:29:26.346Z,9.83
2023-03-27T21:31:53.899Z,9.77
2023-03-27T21:34:22.368Z,9.82
2023-03-27T21:36:50.128Z,9.92
2023-03-27T21:39:17.751Z,9.68
2023-03-27T21:41:45.468Z,9.74
2023-03-27T21:44:13.015Z,9.75
2023-03-27T21:46:40.499Z,9.78
2023-03-27T21:49:08.054Z,9.91
2023-03-27T21:51:35.878Z,9.94
2023-03-27T21:54:03.422Z,9.96
2023-03-27T21:56:31.273Z,9.94
2023-03-27T21:58:58.977Z,9.88
2023-03-27T22:01:26.564Z,9.74
2023-03-27T22:03:54.164Z,9.76
2023-03-27T22:06:21.735Z,9.66
2023-03-27T22:08:49.323Z,9.65
2023-03-27T22:11:17.275Z,9.80
2023-03-27T22:13:46.508Z,9.59
2023-03-27T22:16:16.198Z,9.58
2023-03-27T22:18:44.266Z,9.56
2023-03-27T22:21:22.222Z,9.39
2023-03-27T22:23:51.053Z,9.46
2023-03-27T22:26:39.808Z,9.28
2023-03-27T22:29:09.094Z,9.23
2023-03-27T22:31:37.121Z,8.81
2023-03-27T22:34:05.350Z,8.69
2023-03-27T22:36:33.340Z,8.43
2023-03-27T22:39:01.405Z,8.26
2023-03-27T22:41:28.994Z,8.32
2023-03-27T22:43:56.648Z,8.57
2023-03-27T22:46:24.660Z,8.57
2023-03-27T22:48:56.603Z,8.51
2023-03-27T22:51:27.102Z,8.47
2023-03-27T22:53:54.583Z,8.40
2023-03-27T22:56:22.029Z,8.13
2023-03-27T22:58:50.045Z,7.59
2023-03-27T23:01:17.683Z,7.34
2023-03-27T23:03:45.228Z,6.98
2023-03-27T23:06:21.783Z,7.08
2023-03-27T23:08:50.451Z,7.11
2023-03-27T23:11:19.167Z,6.89
2023-03-27T23:13:46.982Z,6.96
2023-03-27T23:16:14.773Z,6.59
2023-03-27T23:18:42.348Z,6.78
2023-03-27T23:21:12.094Z,6.71
2023-03-27T23:23:40.569Z,7.67
2023-03-27T23:26:09.138Z,8.15
2023-03-27T23:28:39.075Z,8.58
2023-03-27T23:31:10.049Z,8.57
2023-03-27T23:33:40.742Z,8.58
2023-03-27T23:36:11.359Z,8.21
2023-03-27T23:38:39.790Z,7.87
2023-03-27T23:41:08.130Z,7.70
2023-03-27T23:43:36.279Z,7.68
2023-03-27T23:46:05.528Z,7.64
2023-03-27T23:48:33.084Z,7.55
2023-03-27T23:51:00.748Z,7.74
2023-03-27T23:53:28.823Z,7.74
2023-03-27T23:55:58.154Z,7.81
2023-03-27T23:58:32.760Z,7.85
